Time;durP1;ratioP1;P1;durP2;ratioP2;P2;SDS_P1;SDS_P2;PMS_P1;PMS_P2;Temp;Humidity;BMP_temperature;BMP_pressure;BME280_temperature;BME280_humidity;BME280_pressure;Samples;Min_cycle;Max_cycle;Signal;HPM_P1;HPM_P2
2023/05/21 00:02:18;;;;;;;4.10;3.70;;;15.40;91.80;;;;;;5037856;28;20025;-76
2023/05/21 00:04:44;;;;;;;4.90;3.90;;;15.40;91.80;;;;;;5039843;28;20025;-79
2023/05/21 00:07:10;;;;;;;3.78;3.47;;;15.40;91.70;;;;;;5043337;28;20025;-77
2023/05/21 00:09:37;;;;;;;3.65;3.30;;;15.30;91.70;;;;;;5035688;28;20037;-78
2023/05/21 00:12:07;;;;;;;4.18;3.78;;;15.30;91.70;;;;;;5039454;28;20196;-79
2023/05/21 00:14:33;;;;;;;4.63;3.25;;;15.20;91.60;;;;;;5056125;28;20028;-78
2023/05/21 00:16:59;;;;;;;3.83;3.53;;;15.20;91.50;;;;;;5059653;28;20040;-79
2023/05/21 00:19:25;;;;;;;3.63;3.25;;;15.20;91.50;;;;;;5065023;28;20480;-79
2023/05/21 00:21:51;;;;;;;3.72;3.20;;;15.10;91.40;;;;;;5067900;28;20017;-79
2023/05/21 00:24:17;;;;;;;3.17;2.97;;;15.10;91.30;;;;;;5061376;28;20025;-79
2023/05/21 00:26:43;;;;;;;3.10;2.90;;;15.10;91.20;;;;;;5057339;28;20029;-78
2023/05/21 00:29:09;;;;;;;3.78;3.38;;;15.10;91.30;;;;;;5039250;28;20037;-78
2023/05/21 00:31:34;;;;;;;3.90;3.42;;;15.10;91.30;;;;;;5037714;28;20021;-77
2023/05/21 00:34:00;;;;;;;3.33;3.03;;;15.00;91.20;;;;;;5036819;28;20102;-77
2023/05/21 00:36:26;;;;;;;2.90;2.70;;;15.00;91.20;;;;;;5036768;28;20026;-78
2023/05/21 00:38:52;;;;;;;2.67;2.47;;;15.00;91.20;;;;;;5037001;28;20021;-78
2023/05/21 00:41:18;;;;;;;2.83;2.60;;;15.00;91.20;;;;;;5036654;28;20017;-77
2023/05/21 00:43:44;;;;;;;4.15;2.75;;;15.00;91.20;;;;;;5036726;28;20033;-77
2023/05/21 00:46:15;;;;;;;3.15;2.88;;;14.90;91.20;;;;;;5035494;28;20052;-78
2023/05/21 00:48:42;;;;;;;4.05;3.42;;;14.90;91.20;;;;;;5036281;28;20175;-78
2023/05/21 00:51:08;;;;;;;3.50;3.20;;;14.90;91.10;;;;;;5036479;28;20351;-77
2023/05/21 00:53:34;;;;;;;3.47;3.17;;;14.90;91.10;;;;;;5036370;28;20017;-78
2023/05/21 00:56:00;;;;;;;2.92;2.67;;;14.90;91.00;;;;;;5036415;28;20036;-77
2023/05/21 00:58:27;;;;;;;4.50;3.30;;;14.90;91.00;;;;;;5038277;28;20044;-79
2023/05/21 01:00:56;;;;;;;3.30;2.90;;;14.80;91.00;;;;;;5038213;28;20457;-78
2023/05/21 01:03:22;;;;;;;3.40;3.00;;;14.80;90.90;;;;;;5017087;28;20079;-77
2023/05/21 01:05:52;;;;;;;3.63;3.33;;;14.80;90.90;;;;;;5017569;28;20033;-78
2023/05/21 01:08:20;;;;;;;3.45;2.95;;;14.80;90.80;;;;;;5017627;28;20033;-77
2023/05/21 01:10:47;;;;;;;3.17;2.88;;;14.80;90.80;;;;;;5016800;28;20109;-77
2023/05/21 01:13:15;;;;;;;3.05;2.67;;;14.80;90.70;;;;;;5017337;28;20026;-76
2023/05/21 01:15:42;;;;;;;3.20;2.80;;;14.80;90.60;;;;;;5019673;28;20074;-78
2023/05/21 01:18:08;;;;;;;2.90;2.70;;;14.70;90.60;;;;;;5053393;28;20394;-78
2023/05/21 01:20:34;;;;;;;3.35;3.05;;;14.70;90.50;;;;;;5055601;28;20033;-79
2023/05/21 01:22:59;;;;;;;3.00;2.70;;;14.70;90.50;;;;;;5055553;28;20025;-78
2023/05/21 01:25:25;;;;;;;3.72;2.88;;;14.60;90.50;;;;;;5055920;28;20079;-78
2023/05/21 01:27:51;;;;;;;3.58;3.28;;;14.70;90.50;;;;;;5056327;28;20044;-78
2023/05/21 01:30:18;;;;;;;3.20;2.90;;;14.60;90.50;;;;;;5046613;28;20013;-77
2023/05/21 01:32:55;;;;;;;3.25;2.80;;;14.60;90.50;;;;;;5019541;28;20505;-77
2023/05/21 01:35:27;;;;;;;3.40;3.10;;;14.60;90.50;;;;;;5042130;28;20036;-79
2023/05/21 01:37:55;;;;;;;2.97;2.67;;;14.50;90.40;;;;;;5055725;28;20233;-77
2023/05/21 01:40:42;;;;;;;4.53;2.90;;;14.50;90.40;;;;;;5055837;28;20070;-78
2023/05/21 01:43:09;;;;;;;3.65;3.33;;;14.50;90.40;;;;;;5055178;28;20023;-78
2023/05/21 01:45:39;;;;;;;3.08;2.80;;;14.50;90.40;;;;;;5035245;28;20474;-77
2023/05/21 01:48:06;;;;;;;3.72;2.75;;;14.50;90.40;;;;;;5055627;28;20029;-78
2023/05/21 01:50:34;;;;;;;3.60;3.25;;;14.50;90.30;;;;;;5061532;28;20339;-78
2023/05/21 01:52:59;;;;;;;3.45;3.15;;;14.40;90.20;;;;;;5055552;28;20025;-78
2023/05/21 01:55:26;;;;;;;3.97;3.33;;;14.40;90.30;;;;;;5054946;28;20043;-79
2023/05/21 01:57:54;;;;;;;4.22;3.40;;;14.40;90.20;;;;;;5055861;28;20032;-77
2023/05/21 02:00:27;;;;;;;3.88;3.47;;;14.40;90.10;;;;;;5020744;28;20065;-80
2023/05/21 02:02:52;;;;;;;3.13;2.85;;;14.40;90.10;;;;;;5026516;28;20032;-79
2023/05/21 02:05:18;;;;;;;3.50;3.20;;;14.30;90.10;;;;;;5037585;28;20100;-79
2023/05/21 02:07:44;;;;;;;3.60;3.20;;;14.30;90.10;;;;;;5020072;28;20039;-78
2023/05/21 02:10:11;;;;;;;3.22;2.95;;;14.30;90.20;;;;;;5038904;28;20045;-79
2023/05/21 02:12:37;;;;;;;3.22;2.92;;;14.30;90.20;;;;;;5038420;28;20017;-79
2023/05/21 02:15:03;;;;;;;3.13;2.80;;;14.20;90.10;;;;;;5038780;28;20032;-79
2023/05/21 02:17:32;;;;;;;2.95;2.53;;;14.20;90.10;;;;;;5037798;28;20036;-78
2023/05/21 02:20:09;;;;;;;3.03;2.72;;;14.20;90.10;;;;;;5038774;28;20087;-79
2023/05/21 02:22:37;;;;;;;2.78;2.55;;;14.20;90.10;;;;;;5031746;28;20021;-78
2023/05/21 02:25:03;;;;;;;3.22;2.88;;;14.10;90.10;;;;;;5037348;28;20029;-79
2023/05/21 02:27:30;;;;;;;3.15;2.60;;;14.10;90.10;;;;;;5038504;28;20100;-78
2023/05/21 02:29:56;;;;;;;3.30;3.00;;;14.10;90.00;;;;;;5038489;28;20592;-78
2023/05/21 02:32:22;;;;;;;3.63;3.03;;;14.10;90.00;;;;;;5036019;28;20414;-79
2023/05/21 02:34:48;;;;;;;3.80;3.30;;;14.10;90.00;;;;;;5034851;28;20017;-79
2023/05/21 02:37:14;;;;;;;3.67;2.97;;;14.10;89.90;;;;;;5034993;28;20069;-78
2023/05/21 02:39:40;;;;;;;3.85;2.78;;;14.00;89.90;;;;;;5034644;28;20073;-78
2023/05/21 02:42:05;;;;;;;3.40;2.83;;;14.00;90.00;;;;;;5034727;28;20021;-79
2023/05/21 02:44:31;;;;;;;3.65;2.72;;;14.00;90.00;;;;;;5034351;28;20029;-78
2023/05/21 02:46:57;;;;;;;2.58;2.38;;;13.90;90.00;;;;;;5036185;28;20032;-77
2023/05/21 02:49:22;;;;;;;2.97;2.70;;;13.90;90.00;;;;;;5050693;28;20061;-78
2023/05/21 02:51:48;;;;;;;2.97;2.67;;;13.90;90.00;;;;;;5035105;28;20396;-78
2023/05/21 02:54:14;;;;;;;2.83;2.58;;;13.90;90.10;;;;;;5035056;28;20032;-78
2023/05/21 02:56:40;;;;;;;2.60;2.40;;;13.80;90.10;;;;;;5017716;28;20067;-78
2023/05/21 02:59:06;;;;;;;2.45;2.25;;;13.80;90.10;;;;;;5035007;28;20064;-78
2023/05/21 03:01:31;;;;;;;2.53;2.33;;;13.80;90.10;;;;;;5031772;28;20025;-79
2023/05/21 03:03:57;;;;;;;2.60;2.40;;;13.80;90.20;;;;;;5039437;28;20028;-79
2023/05/21 03:06:22;;;;;;;2.60;2.40;;;13.80;90.20;;;;;;5054357;28;20083;-79
2023/05/21 03:08:48;;;;;;;1.90;1.80;;;13.70;90.20;;;;;;5054791;28;20039;-78
2023/05/21 03:11:14;;;;;;;2.40;2.20;;;13.70;90.30;;;;;;5055606;28;20021;-77
2023/05/21 03:13:41;;;;;;;2.40;2.20;;;13.70;90.30;;;;;;5054569;28;20096;-79
2023/05/21 03:16:07;;;;;;;2.58;2.38;;;13.70;90.30;;;;;;5054339;28;20021;-77
2023/05/21 03:18:32;;;;;;;2.35;2.15;;;13.70;90.40;;;;;;5054839;28;20015;-77
2023/05/21 03:20:58;;;;;;;3.85;2.45;;;13.60;90.50;;;;;;5047839;28;20044;-77
2023/05/21 03:23:23;;;;;;;2.53;2.33;;;13.60;90.50;;;;;;5017810;28;20132;-78
2023/05/21 03:25:52;;;;;;;3.03;2.70;;;13.60;90.50;;;;;;5032401;28;20092;-78
2023/05/21 03:28:17;;;;;;;2.85;2.45;;;13.60;90.60;;;;;;5033835;28;20112;-77
2023/05/21 03:30:45;;;;;;;3.25;2.95;;;13.60;90.60;;;;;;5017887;28;20513;-78
2023/05/21 03:33:12;;;;;;;3.00;2.70;;;13.60;90.70;;;;;;5035084;28;20512;-78
2023/05/21 03:35:38;;;;;;;2.90;2.55;;;13.60;90.70;;;;;;5034645;28;20077;-79
2023/05/21 03:38:04;;;;;;;3.40;2.88;;;13.50;90.70;;;;;;5041479;28;20067;-79
2023/05/21 03:40:29;;;;;;;3.40;2.85;;;13.60;90.70;;;;;;5056656;28;20553;-78
2023/05/21 03:42:55;;;;;;;3.25;2.95;;;13.50;90.70;;;;;;5056669;28;20404;-78
2023/05/21 03:45:21;;;;;;;3.65;3.28;;;13.60;90.70;;;;;;5059085;28;20486;-78
2023/05/21 03:47:47;;;;;;;3.28;2.92;;;13.50;90.70;;;;;;5063644;28;20496;-79
2023/05/21 03:50:13;;;;;;;3.97;3.15;;;13.50;90.70;;;;;;5044162;28;20393;-79
2023/05/21 03:52:38;;;;;;;3.30;3.03;;;13.60;90.70;;;;;;5044794;28;20028;-78
2023/05/21 03:55:05;;;;;;;3.70;3.03;;;13.60;90.70;;;;;;5046089;28;20051;-78
2023/05/21 03:57:31;;;;;;;4.30;3.53;;;13.60;90.70;;;;;;5038821;28;20037;-78
2023/05/21 03:59:57;;;;;;;4.70;3.78;;;13.60;90.70;;;;;;5028872;28;20034;-78
2023/05/21 04:02:26;;;;;;;4.00;3.60;;;13.60;90.70;;;;;;5036647;28;20030;-78
2023/05/21 04:04:52;;;;;;;3.35;3.05;;;13.60;90.60;;;;;;5043882;28;20032;-78
2023/05/21 04:07:18;;;;;;;4.25;3.10;;;13.70;90.70;;;;;;5044965;28;20071;-78
2023/05/21 04:09:45;;;;;;;3.72;3.28;;;13.60;90.70;;;;;;5044965;28;20034;-78
2023/05/21 04:12:11;;;;;;;2.97;2.78;;;13.70;90.70;;;;;;5061746;28;20025;-79
2023/05/21 04:14:37;;;;;;;3.50;2.65;;;13.70;90.60;;;;;;5061037;28;20025;-78
2023/05/21 04:17:06;;;;;;;3.25;2.95;;;13.70;90.50;;;;;;5060225;28;20401;-79
2023/05/21 04:19:32;;;;;;;3.00;2.70;;;13.80;90.50;;;;;;5061332;28;20385;-79
2023/05/21 04:21:57;;;;;;;2.67;2.47;;;13.90;90.40;;;;;;5060470;28;20025;-79
2023/05/21 04:24:23;;;;;;;2.75;2.55;;;13.90;90.30;;;;;;5058151;28;20047;-78
2023/05/21 04:26:49;;;;;;;3.47;3.10;;;14.00;90.20;;;;;;5055593;28;20045;-79
2023/05/21 04:29:19;;;;;;;2.92;2.72;;;14.10;90.10;;;;;;5048872;28;20028;-78
2023/05/21 04:31:48;;;;;;;3.58;2.40;;;14.10;90.00;;;;;;5040118;28;20045;-78
2023/05/21 04:34:16;;;;;;;3.83;3.42;;;14.20;89.80;;;;;;5041074;28;20034;-79
2023/05/21 04:36:44;;;;;;;4.18;2.72;;;14.30;89.60;;;;;;5041966;28;20032;-79
2023/05/21 04:39:13;;;;;;;4.25;3.53;;;14.40;89.40;;;;;;5042165;28;20414;-78
2023/05/21 04:41:39;;;;;;;4.07;3.70;;;14.40;89.00;;;;;;5038784;28;20037;-78
2023/05/21 04:44:08;;;;;;;3.55;3.25;;;14.50;88.60;;;;;;5033187;28;20156;-77
2023/05/21 04:46:34;;;;;;;4.13;3.20;;;14.50;88.40;;;;;;5057201;28;20098;-78
2023/05/21 04:49:04;;;;;;;3.92;3.33;;;14.70;88.20;;;;;;5039206;28;20430;-78
2023/05/21 04:51:30;;;;;;;3.70;3.35;;;14.70;87.80;;;;;;5056393;28;20029;-78
2023/05/21 04:53:56;;;;;;;3.28;2.97;;;14.90;87.50;;;;;;5056424;28;20057;-78
2023/05/21 04:56:25;;;;;;;3.65;3.25;;;14.90;87.00;;;;;;5056109;28;20044;-78
2023/05/21 04:58:53;;;;;;;4.43;3.55;;;15.00;86.60;;;;;;5056820;28;20334;-77
2023/05/21 05:01:22;;;;;;;3.63;2.83;;;15.10;86.60;;;;;;5038484;28;20021;-78
2023/05/21 05:03:48;;;;;;;3.40;3.10;;;15.10;86.30;;;;;;5035632;28;20134;-78
2023/05/21 05:06:13;;;;;;;3.30;2.95;;;15.20;85.90;;;;;;5035344;28;20114;-78
2023/05/21 05:08:39;;;;;;;3.50;3.22;;;15.40;85.50;;;;;;5036838;28;20393;-77
2023/05/21 05:11:05;;;;;;;3.47;2.97;;;15.50;85.00;;;;;;5037023;28;20033;-77
2023/05/21 05:13:30;;;;;;;3.35;3.03;;;15.60;84.50;;;;;;5036252;28;20437;-77
2023/05/21 05:15:56;;;;;;;2.70;2.50;;;15.70;84.30;;;;;;5037360;28;20057;-77
2023/05/21 05:18:22;;;;;;;2.90;2.70;;;;;;;;;;5036690;28;20450;-78
2023/05/21 05:20:48;;;;;;;2.67;2.45;;;16.10;82.90;;;;;;5036403;28;20056;-78
2023/05/21 05:23:14;;;;;;;2.80;2.60;;;16.20;82.90;;;;;;5035931;28;20034;-77
2023/05/21 05:25:39;;;;;;;2.50;2.30;;;16.30;82.10;;;;;;5036518;28;20060;-78
2023/05/21 05:28:05;;;;;;;2.58;2.20;;;16.30;81.60;;;;;;5018526;28;20112;-78
2023/05/21 05:30:31;;;;;;;2.70;2.50;;;16.40;81.30;;;;;;5035791;28;20052;-77
2023/05/21 05:32:56;;;;;;;2.40;2.03;;;16.50;81.40;;;;;;5041743;28;20037;-77
2023/05/21 05:35:22;;;;;;;1.77;1.67;;;16.70;80.60;;;;;;5055984;28;20029;-78
2023/05/21 05:37:48;;;;;;;2.50;1.77;;;16.70;79.90;;;;;;5056350;28;20026;-77
2023/05/21 05:40:13;;;;;;;2.33;2.13;;;17.00;79.20;;;;;;5056407;28;20029;-77
2023/05/21 05:42:39;;;;;;;3.05;2.60;;;17.00;78.70;;;;;;5038631;28;20025;-78
2023/05/21 05:45:05;;;;;;;2.90;2.70;;;17.10;79.20;;;;;;5059717;28;20439;-78
2023/05/21 05:47:31;;;;;;;2.28;2.08;;;17.10;79.00;;;;;;5059438;28;20029;-78
2023/05/21 05:49:56;;;;;;;2.20;2.00;;;17.20;78.90;;;;;;5047251;28;20109;-78
2023/05/21 05:52:22;;;;;;;2.13;1.95;;;17.20;79.20;;;;;;5046773;28;20100;-78
2023/05/21 05:54:48;;;;;;;2.72;2.50;;;17.40;79.10;;;;;;5055138;28;20568;-77
2023/05/21 05:57:13;;;;;;;2.67;2.47;;;17.50;77.80;;;;;;5055407;28;20052;-78
2023/05/21 05:59:39;;;;;;;2.90;2.55;;;17.60;77.70;;;;;;5050754;28;20017;-77
2023/05/21 06:02:05;;;;;;;2.47;2.28;;;17.70;78.30;;;;;;5035594;28;20494;-77
2023/05/21 06:04:31;;;;;;;2.35;2.15;;;17.90;77.20;;;;;;5035579;28;20648;-77
2023/05/21 06:06:57;;;;;;;2.50;2.30;;;18.10;77.10;;;;;;5046457;28;20021;-78
2023/05/21 06:09:23;;;;;;;3.00;2.70;;;18.30;76.50;;;;;;5058268;28;20029;-78
2023/05/21 06:11:49;;;;;;;2.35;2.15;;;;;;;;;;5057151;28;20109;-78
2023/05/21 06:14:15;;;;;;;2.25;2.05;;;18.80;74.60;;;;;;5040159;28;20374;-78
2023/05/21 06:16:41;;;;;;;2.38;2.17;;;19.10;74.00;;;;;;5047013;28;20017;-79
2023/05/21 06:19:07;;;;;;;2.75;2.42;;;19.50;73.10;;;;;;5063102;28;20036;-78
2023/05/21 06:21:33;;;;;;;3.58;2.85;;;19.90;70.70;;;;;;5046944;28;20051;-78
2023/05/21 06:23:58;;;;;;;6.45;3.85;;;20.30;69.40;;;;;;5046470;28;20013;-77
2023/05/21 06:26:24;;;;;;;5.82;4.43;;;20.70;67.50;;;;;;5035391;28;20029;-78
2023/05/21 06:28:50;;;;;;;5.20;4.68;;;21.00;66.40;;;;;;5035555;28;20544;-78
2023/05/21 06:31:15;;;;;;;6.43;4.30;;;21.20;64.70;;;;;;5035407;28;20545;-78
2023/05/21 06:33:41;;;;;;;4.13;3.72;;;21.40;64.70;;;;;;5035493;28;20026;-79
2023/05/21 06:36:07;;;;;;;4.32;3.92;;;22.00;64.60;;;;;;5035839;28;20025;-78
2023/05/21 06:38:33;;;;;;;4.32;3.92;;;22.90;62.00;;;;;;5017773;28;20056;-78
2023/05/21 06:40:59;;;;;;;3.72;3.40;;;23.60;59.40;;;;;;5037283;28;20062;-78
2023/05/21 06:43:25;;;;;;;3.20;2.90;;;24.10;57.70;;;;;;5035013;28;20025;-79
2023/05/21 06:45:50;;;;;;;3.75;3.45;;;24.60;56.10;;;;;;5035180;28;20021;-78
2023/05/21 06:48:16;;;;;;;5.05;3.50;;;;;;;;;;5036663;28;20044;-78
2023/05/21 06:50:42;;;;;;;3.50;3.20;;;25.40;52.70;;;;;;5036550;28;20430;-78
2023/05/21 06:53:08;;;;;;;2.80;2.60;;;25.60;52.70;;;;;;5034839;28;20120;-78
2023/05/21 06:55:34;;;;;;;3.05;2.75;;;26.20;51.90;;;;;;5037736;28;20262;-77
2023/05/21 06:58:00;;;;;;;2.35;2.25;;;26.60;50.80;;;;;;5043731;28;20549;-77
2023/05/21 07:00:26;;;;;;;2.75;2.55;;;27.00;49.70;;;;;;5043972;28;20053;-78
2023/05/21 07:02:51;;;;;;;4.38;3.97;;;27.00;48.70;;;;;;5034821;28;20482;-78
2023/05/21 07:05:17;;;;;;;3.53;3.22;;;26.20;48.40;;;;;;5034465;28;20563;-78
2023/05/21 07:07:43;;;;;;;3.13;2.83;;;25.50;49.50;;;;;;5017345;28;20033;-79
2023/05/21 07:10:09;;;;;;;3.70;3.40;;;24.80;50.40;;;;;;5035186;28;20072;-76
2023/05/21 07:12:35;;;;;;;3.85;3.55;;;24.10;51.80;;;;;;5034823;28;20407;-77
2023/05/21 07:15:01;;;;;;;5.13;4.63;;;23.40;52.80;;;;;;5050487;28;20039;-77
2023/05/21 07:17:26;;;;;;;4.93;4.40;;;22.60;54.10;;;;;;5066098;28;20164;-76
2023/05/21 07:19:52;;;;;;;5.15;4.63;;;21.90;55.60;;;;;;5069291;28;20039;-78
2023/05/21 07:22:18;;;;;;;5.32;4.80;;;21.40;56.30;;;;;;5069590;28;20040;-78
2023/05/21 07:24:43;;;;;;;4.90;4.07;;;21.10;57.40;;;;;;5067344;28;20044;-77
2023/05/21 07:27:09;;;;;;;5.00;4.47;;;21.00;57.80;;;;;;5066501;28;20040;-77
2023/05/21 07:29:35;;;;;;;3.90;3.45;;;20.90;58.20;;;;;;5052583;28;20083;-77
2023/05/21 07:32:01;;;;;;;3.75;3.45;;;21.00;58.50;;;;;;5024177;28;20026;-79
2023/05/21 07:34:27;;;;;;;3.75;3.45;;;21.20;58.10;;;;;;5023625;28;20025;-79
2023/05/21 07:36:53;;;;;;;4.10;3.70;;;21.40;57.60;;;;;;5021492;28;20033;-79
2023/05/21 07:39:18;;;;;;;4.38;3.38;;;21.40;57.10;;;;;;5033834;28;20041;-77
2023/05/21 07:41:44;;;;;;;3.63;3.33;;;21.40;57.20;;;;;;5034566;28;20026;-78
2023/05/21 07:44:10;;;;;;;4.68;4.28;;;21.30;57.40;;;;;;5034342;28;20033;-79
2023/05/21 07:46:36;;;;;;;5.95;4.57;;;21.10;57.30;;;;;;5034407;28;20040;-78
2023/05/21 07:49:02;;;;;;;4.07;3.70;;;20.80;57.80;;;;;;5016589;28;20017;-80
2023/05/21 07:51:28;;;;;;;4.55;4.00;;;20.80;58.60;;;;;;5034858;28;20022;-79
2023/05/21 07:53:53;;;;;;;3.08;2.88;;;21.00;58.30;;;;;;5034629;28;20021;-80
2023/05/21 07:56:19;;;;;;;3.47;3.17;;;21.20;58.10;;;;;;5033633;28;20022;-77
2023/05/21 07:58:46;;;;;;;3.30;3.00;;;21.20;57.70;;;;;;5035360;28;20048;-77
2023/05/21 08:01:12;;;;;;;3.17;2.88;;;21.20;57.60;;;;;;5033712;28;20218;-78
2023/05/21 08:03:37;;;;;;;3.20;2.90;;;21.20;57.70;;;;;;5034035;28;20144;-78
2023/05/21 08:06:03;;;;;;;5.82;4.25;;;21.20;57.80;;;;;;5033936;28;20017;-77
2023/05/21 08:08:29;;;;;;;5.45;4.75;;;21.00;58.20;;;;;;5036618;28;20028;-77
2023/05/21 08:10:55;;;;;;;4.43;3.58;;;20.80;59.00;;;;;;5035038;28;20056;-77
2023/05/21 08:13:21;;;;;;;4.22;3.80;;;20.70;59.50;;;;;;5016968;28;20025;-78
2023/05/21 08:15:47;;;;;;;3.88;3.47;;;20.70;59.50;;;;;;5034273;28;20544;-79
2023/05/21 08:18:13;;;;;;;3.42;3.13;;;20.80;59.80;;;;;;5038303;28;20081;-78
2023/05/21 08:20:40;;;;;;;3.60;3.30;;;21.00;59.60;;;;;;5036154;28;20052;-78
2023/05/21 08:23:05;;;;;;;3.22;3.00;;;21.20;59.60;;;;;;5054630;28;20482;-78
2023/05/21 08:25:31;;;;;;;3.97;3.20;;;21.50;59.40;;;;;;5053491;28;20029;-78
2023/05/21 08:27:57;;;;;;;3.20;2.90;;;21.70;59.10;;;;;;5054965;28;20100;-78
2023/05/21 08:30:23;;;;;;;3.38;3.08;;;21.80;58.70;;;;;;5027592;28;20071;-79
2023/05/21 08:32:49;;;;;;;3.13;2.92;;;21.90;58.90;;;;;;5038814;28;20026;-77
2023/05/21 08:35:15;;;;;;;3.38;3.08;;;22.10;58.60;;;;;;5022379;28;20105;-77
2023/05/21 08:37:41;;;;;;;3.72;3.42;;;22.30;58.20;;;;;;5038961;28;20049;-77
2023/05/21 08:40:08;;;;;;;3.28;2.97;;;22.30;58.40;;;;;;5036331;28;20043;-77
2023/05/21 08:42:44;;;;;;;2.58;2.40;;;22.40;58.50;;;;;;5023921;28;20552;-79
2023/05/21 08:45:15;;;;;;;3.50;3.20;;;22.50;58.60;;;;;;5043230;28;20041;-78
2023/05/21 08:47:48;;;;;;;3.22;2.92;;;22.70;58.40;;;;;;5037354;28;20021;-77
2023/05/21 08:50:18;;;;;;;2.97;2.78;;;22.90;58.00;;;;;;5037869;28;20033;-77
2023/05/21 08:52:43;;;;;;;2.67;2.47;;;23.00;57.80;;;;;;5040154;28;20429;-78
2023/05/21 08:55:09;;;;;;;3.53;3.22;;;23.20;57.50;;;;;;5060803;28;20160;-77
2023/05/21 08:57:36;;;;;;;3.88;3.58;;;23.30;57.20;;;;;;5060451;28;20470;-77
2023/05/21 09:00:03;;;;;;;4.05;3.67;;;23.30;57.30;;;;;;5050555;28;20034;-77
2023/05/21 09:02:33;;;;;;;3.90;3.60;;;23.10;58.00;;;;;;5038740;28;20022;-77
2023/05/21 09:05:02;;;;;;;3.65;3.35;;;23.20;58.40;;;;;;5037704;28;20041;-77
2023/05/21 09:07:29;;;;;;;4.57;3.67;;;23.40;58.40;;;;;;5038983;28;20524;-77
2023/05/21 09:10:04;;;;;;;2.95;2.75;;;23.50;58.00;;;;;;5039120;28;20112;-77
2023/05/21 09:12:30;;;;;;;6.22;4.72;;;23.70;58.00;;;;;;5047118;28;20112;-78
2023/05/21 09:14:57;;;;;;;4.40;4.00;;;23.60;57.90;;;;;;5037697;28;20026;-77
2023/05/21 09:17:23;;;;;;;3.90;3.60;;;23.70;58.20;;;;;;5039109;28;20021;-79
2023/05/21 09:20:13;;;;;;;4.47;3.95;;;23.90;57.80;;;;;;5039558;28;20022;-78
2023/05/21 09:22:40;;;;;;;3.58;3.30;;;23.90;58.10;;;;;;5040148;28;20389;-78
2023/05/21 09:25:07;;;;;;;3.63;3.33;;;24.20;58.10;;;;;;5039850;28;20101;-78
2023/05/21 09:27:34;;;;;;;3.25;3.05;;;24.50;57.60;;;;;;5042256;28;20031;-78
2023/05/21 09:30:00;;;;;;;3.70;3.40;;;24.50;57.00;;;;;;5028142;28;20104;-78
2023/05/21 09:32:26;;;;;;;3.45;3.15;;;24.70;56.90;;;;;;5040746;28;20022;-77
2023/05/21 09:34:52;;;;;;;3.35;3.05;;;;;;;;;;5041448;28;20536;-79
2023/05/21 09:37:19;;;;;;;3.53;3.22;;;25.10;55.70;;;;;;5039182;28;20052;-77
2023/05/21 09:39:46;;;;;;;4.22;3.83;;;25.20;55.50;;;;;;5048873;28;20089;-78
2023/05/21 09:42:12;;;;;;;4.82;4.22;;;25.10;55.20;;;;;;5056557;28;20029;-77
2023/05/21 09:44:39;;;;;;;4.10;3.80;;;24.90;55.80;;;;;;5056629;28;20059;-78
2023/05/21 09:47:04;;;;;;;4.80;4.40;;;24.90;55.80;;;;;;5040366;28;20199;-77
2023/05/21 09:49:30;;;;;;;4.57;4.18;;;24.80;54.90;;;;;;5059779;28;20107;-77
2023/05/21 09:51:57;;;;;;;4.18;3.88;;;24.80;54.70;;;;;;5060228;28;20032;-78
2023/05/21 09:54:23;;;;;;;3.80;3.50;;;24.90;54.70;;;;;;5058023;28;20017;-78
2023/05/21 09:56:54;;;;;;;4.15;3.70;;;25.20;54.00;;;;;;5060268;28;20025;-78
2023/05/21 09:59:20;;;;;;;3.83;3.47;;;25.40;53.20;;;;;;5062555;28;20038;-78
2023/05/21 10:01:46;;;;;;;3.53;3.30;;;25.80;53.10;;;;;;5051706;28;20032;-77
2023/05/21 10:04:12;;;;;;;3.95;3.50;;;26.30;50.90;;;;;;5049469;28;20073;-77
2023/05/21 10:06:42;;;;;;;4.47;3.90;;;26.90;49.40;;;;;;5050850;28;20132;-77
2023/05/21 10:09:12;;;;;;;4.63;4.22;;;27.10;46.90;;;;;;5050008;28;20034;-77
2023/05/21 10:11:41;;;;;;;4.20;3.90;;;27.50;45.50;;;;;;5050766;28;20047;-77
2023/05/21 10:14:16;;;;;;;4.28;3.88;;;27.90;43.80;;;;;;5051036;28;20037;-78
2023/05/21 10:16:42;;;;;;;4.00;3.70;;;28.30;43.10;;;;;;5047043;28;20022;-77
2023/05/21 10:19:12;;;;;;;3.58;3.28;;;28.60;42.60;;;;;;5026100;28;20026;-77
2023/05/21 10:21:38;;;;;;;4.60;4.20;;;28.90;42.00;;;;;;5027268;28;20035;-79
2023/05/21 10:24:07;;;;;;;4.97;4.50;;;29.00;41.30;;;;;;5045961;28;20022;-75
2023/05/21 10:26:34;;;;;;;5.00;4.50;;;28.80;40.80;;;;;;5042755;28;20025;-76
2023/05/21 10:29:01;;;;;;;5.25;4.75;;;28.70;41.20;;;;;;5042243;28;20036;-77
2023/05/21 10:31:28;;;;;;;4.57;4.18;;;28.80;41.30;;;;;;5043361;28;20022;-76
2023/05/21 10:33:54;;;;;;;4.53;4.22;;;28.80;41.10;;;;;;5042500;28;20009;-77
2023/05/21 10:36:23;;;;;;;4.50;4.10;;;28.60;41.80;;;;;;5043189;28;20093;-79
2023/05/21 10:38:49;;;;;;;4.50;4.05;;;28.70;41.30;;;;;;5042738;28;20045;-77
2023/05/21 10:41:18;;;;;;;3.65;3.35;;;28.90;40.10;;;;;;5042130;28;20044;-75
2023/05/21 10:43:55;;;;;;;3.75;3.45;;;28.90;39.90;;;;;;5042175;28;20077;-77
2023/05/21 10:46:38;;;;;;;3.65;3.35;;;28.90;39.90;;;;;;5040298;28;20169;-77
2023/05/21 10:49:24;;;;;;;3.40;3.20;;;28.90;40.20;;;;;;5040055;28;20048;-78
2023/05/21 10:52:23;;;;;;;4.95;4.30;;;28.90;40.80;;;;;;5039130;28;20087;-79
2023/05/21 10:55:16;;;;;;;4.60;4.20;;;28.70;40.50;;;;;;5040182;28;20143;-79
2023/05/21 10:58:18;;;;;;;4.28;3.88;;;28.30;40.70;;;;;;5041926;28;20029;-79
2023/05/21 11:00:44;;;;;;;4.53;4.10;;;28.00;40.90;;;;;;5038298;28;20030;-77
2023/05/21 11:03:12;;;;;;;4.43;4.03;;;27.60;41.40;;;;;;5042871;28;20041;-78
2023/05/21 11:05:40;;;;;;;4.95;4.32;;;27.30;42.20;;;;;;5056222;28;20505;-77
2023/05/21 11:08:21;;;;;;;4.20;3.90;;;27.20;42.60;;;;;;5057313;28;20025;-77
2023/05/21 11:10:57;;;;;;;5.57;5.07;;;27.20;42.10;;;;;;5062939;28;20036;-78
2023/05/21 11:13:24;;;;;;;4.43;4.00;;;27.00;41.80;;;;;;5057205;28;20025;-78
2023/05/21 11:15:56;;;;;;;4.63;4.22;;;26.90;42.00;;;;;;5057624;28;20541;-78
2023/05/21 11:18:23;;;;;;;3.72;3.42;;;27.00;41.90;;;;;;5059457;28;20099;-77
2023/05/21 11:20:52;;;;;;;4.38;3.97;;;27.20;41.70;;;;;;5055398;28;20036;-79
2023/05/21 11:23:19;;;;;;;4.32;3.92;;;27.60;41.60;;;;;;5021749;28;20026;-79
2023/05/21 11:26:00;;;;;;;3.70;3.40;;;28.10;41.00;;;;;;5018796;28;20494;-78
2023/05/21 11:28:34;;;;;;;3.70;3.40;;;28.70;40.70;;;;;;5037753;28;20032;-79
2023/05/21 11:31:25;;;;;;;3.80;3.58;;;29.30;40.10;;;;;;5020677;28;20546;-78
2023/05/21 11:34:09;;;;;;;5.40;3.95;;;29.70;39.40;;;;;;5040791;28;20029;-78
2023/05/21 11:36:48;;;;;;;3.85;3.55;;;29.90;39.10;;;;;;5039578;28;20022;-77
2023/05/21 11:39:21;;;;;;;5.72;4.75;;;30.00;39.00;;;;;;5038316;28;20029;-80
2023/05/21 11:41:55;;;;;;;6.47;5.28;;;29.60;38.80;;;;;;5035835;28;20031;-78
2023/05/21 11:44:39;;;;;;;4.45;4.15;;;29.20;39.10;;;;;;5018830;28;20052;-78
2023/05/21 11:47:07;;;;;;;4.40;4.07;;;29.00;39.90;;;;;;5038298;28;20025;-79
2023/05/21 11:49:33;;;;;;;4.20;3.88;;;29.20;39.80;;;;;;5040074;28;20124;-78
2023/05/21 11:52:00;;;;;;;4.90;4.45;;;29.60;39.20;;;;;;5023471;28;20040;-77
2023/05/21 11:54:35;;;;;;;4.97;4.45;;;29.60;38.40;;;;;;5035997;28;20018;-79
2023/05/21 11:57:01;;;;;;;4.88;4.40;;;29.50;38.30;;;;;;5035657;28;20052;-78
2023/05/21 11:59:27;;;;;;;4.43;4.05;;;29.50;37.70;;;;;;5036978;28;20061;-79
2023/05/21 12:01:58;;;;;;;4.50;4.10;;;29.50;38.10;;;;;;5041085;28;20025;-77
2023/05/21 12:04:27;;;;;;;5.20;4.60;;;29.60;37.20;;;;;;5039072;28;20067;-79
2023/05/21 12:06:54;;;;;;;4.38;4.00;;;29.60;37.00;;;;;;5020148;28;20056;-75
2023/05/21 12:09:20;;;;;;;3.97;3.67;;;29.50;37.10;;;;;;5052902;28;20021;-76
2023/05/21 12:11:46;;;;;;;4.55;4.15;;;29.40;37.30;;;;;;5064673;28;20009;-76
2023/05/21 12:14:12;;;;;;;4.75;4.35;;;29.30;37.50;;;;;;5063292;28;20025;-76
2023/05/21 12:16:38;;;;;;;6.35;4.90;;;29.40;37.60;;;;;;5057413;28;20070;-77
2023/05/21 12:19:05;;;;;;;5.03;4.63;;;29.30;37.00;;;;;;5039964;28;20065;-77
2023/05/21 12:21:32;;;;;;;4.45;3.78;;;29.10;37.50;;;;;;5037706;28;20057;-75
2023/05/21 12:23:58;;;;;;;4.25;3.95;;;29.20;37.70;;;;;;5036187;28;20026;-75
2023/05/21 12:26:24;;;;;;;4.45;4.15;;;29.20;38.10;;;;;;5036712;28;20104;-75
2023/05/21 12:29:00;;;;;;;4.50;4.20;;;29.30;38.40;;;;;;5036824;28;20057;-75
2023/05/21 12:31:26;;;;;;;4.65;4.25;;;29.30;38.10;;;;;;5036630;28;20028;-75
2023/05/21 12:33:52;;;;;;;5.95;4.03;;;29.50;38.00;;;;;;5036813;28;20100;-75
2023/05/21 12:36:36;;;;;;;4.68;4.28;;;29.40;37.50;;;;;;5036606;28;20510;-75
2023/05/21 12:39:03;;;;;;;4.63;4.22;;;29.60;38.00;;;;;;5037013;28;20109;-74
2023/05/21 12:41:28;;;;;;;4.05;3.75;;;29.70;37.70;;;;;;5036084;28;20036;-74
2023/05/21 12:43:54;;;;;;;4.03;3.63;;;29.80;37.70;;;;;;5036719;28;20037;-75
2023/05/21 12:46:22;;;;;;;3.83;3.53;;;30.00;37.30;;;;;;5036708;28;20040;-76
2023/05/21 12:48:48;;;;;;;5.25;4.57;;;30.20;37.00;;;;;;5036960;28;20051;-75
2023/05/21 12:51:14;;;;;;;5.30;4.80;;;30.20;36.60;;;;;;5036961;28;20025;-76